createdAt,value
2023-04-11T00:00:51.942Z,10.80
2023-04-11T00:03:20.138Z,10.80
2023-04-11T00:05:46.986Z,10.80
2023-04-11T00:08:13.591Z,10.70
2023-04-11T00:10:40.256Z,10.80
2023-04-11T00:13:07.476Z,10.70
2023-04-11T00:15:34.148Z,10.70
2023-04-11T00:18:00.750Z,10.70
2023-04-11T00:20:27.383Z,10.70
2023-04-11T00:22:54.268Z,10.60
2023-04-11T00:25:21.008Z,10.60
2023-04-11T00:27:47.631Z,10.60
2023-04-11T00:30:14.413Z,10.60
2023-04-11T00:32:41.186Z,10.60
2023-04-11T00:35:08.754Z,10.60
2023-04-11T00:37:36.373Z,10.60
2023-04-11T00:40:05.746Z,10.60
2023-04-11T00:42:33.194Z,10.60
2023-04-11T00:44:59.787Z,10.60
2023-04-11T00:47:26.677Z,10.60
2023-04-11T00:49:53.409Z,10.60
2023-04-11T00:52:20.837Z,10.60
2023-04-11T00:54:48.246Z,10.60
2023-04-11T00:57:15.612Z,10.60
2023-04-11T00:59:43.173Z,10.60
2023-04-11T01:02:10.667Z,10.50
2023-04-11T01:04:37.372Z,10.40
2023-04-11T01:07:06.307Z,10.30
2023-04-11T01:09:35.140Z,10.40
2023-04-11T01:12:03.145Z,10.40
2023-04-11T01:14:30.061Z,10.40
2023-04-11T01:16:57.343Z,10.40
2023-04-11T01:19:28.918Z,10.40
2023-04-11T01:21:57.967Z,10.40
2023-04-11T01:24:24.974Z,10.40
2023-04-11T01:26:52.216Z,10.40
2023-04-11T01:29:18.992Z,10.40
2023-04-11T01:31:46.034Z,10.40
2023-04-11T01:34:14.973Z,10.40
2023-04-11T01:36:42.674Z,10.50
2023-04-11T01:39:09.712Z,10.40
2023-04-11T01:41:37.380Z,10.40
2023-04-11T01:44:04.779Z,10.40
2023-04-11T01:46:32.043Z,10.40
2023-04-11T01:49:00.975Z,10.40
2023-04-11T01:51:27.758Z,10.40
2023-04-11T01:53:54.863Z,10.30
2023-04-11T01:56:22.068Z,10.30
2023-04-11T01:58:48.776Z,10.30
2023-04-11T02:01:19.568Z,10.30
2023-04-11T02:03:46.642Z,10.30
2023-04-11T02:06:14.849Z,10.30
2023-04-11T02:08:41.450Z,10.30
2023-04-11T02:11:08.373Z,10.30
2023-04-11T02:13:36.015Z,10.20
2023-04-11T02:16:11.493Z,10.20
2023-04-11T02:18:38.343Z,10.20
2023-04-11T02:21:06.043Z,10.20
2023-04-11T02:23:32.988Z,10.20
2023-04-11T02:25:59.805Z,10.20
2023-04-11T02:28:26.502Z,10.20
2023-04-11T02:30:53.323Z,10.20
2023-04-11T02:33:22.791Z,10.30
2023-04-11T02:35:49.446Z,10.20
2023-04-11T02:38:16.171Z,10.20
2023-04-11T02:40:42.861Z,10.10
2023-04-11T02:43:09.650Z,10.20
2023-04-11T02:45:36.295Z,10.10
2023-04-11T02:48:03.104Z,10.10
2023-04-11T02:50:29.817Z,10.10
2023-04-11T02:52:57.024Z,10.10
2023-04-11T02:55:24.228Z,10.10
2023-04-11T02:57:51.300Z,10.10
2023-04-11T03:00:20.116Z,10.10
2023-04-11T03:02:47.057Z,10.10
2023-04-11T03:05:14.991Z,10.10
2023-04-11T03:07:41.604Z,10.10
2023-04-11T03:10:08.758Z,10.10
2023-04-11T03:12:35.378Z,10.00
2023-04-11T03:15:02.000Z,10.00
2023-04-11T03:17:28.682Z,10.00
2023-04-11T03:19:55.478Z,10.00
2023-04-11T03:22:23.880Z,10.00
2023-04-11T03:24:50.622Z,10.00
2023-04-11T03:27:17.250Z,10.00
2023-04-11T03:29:43.864Z,10.00
2023-04-11T03:32:10.682Z,10.00
2023-04-11T03:34:37.323Z,9.90
2023-04-11T03:37:04.004Z,9.90
2023-04-11T03:39:30.566Z,9.90
2023-04-11T03:41:57.875Z,9.90
2023-04-11T03:44:24.500Z,9.90
2023-04-11T03:46:51.206Z,9.90
2023-04-11T03:49:17.788Z,9.90
2023-04-11T03:51:44.462Z,9.80
2023-04-11T03:54:11.058Z,9.90
2023-04-11T03:56:37.766Z,9.80
2023-04-11T03:59:04.390Z,9.80
2023-04-11T04:01:32.494Z,9.80
2023-04-11T04:04:00.669Z,9.80
2023-04-11T04:06:28.573Z,9.80
2023-04-11T04:08:55.417Z,9.70
2023-04-11T04:11:22.161Z,9.70
2023-04-11T04:13:48.846Z,9.70
2023-04-11T04:16:17.716Z,9.70
2023-04-11T04:18:44.468Z,9.80
2023-04-11T04:21:11.092Z,9.80
2023-04-11T04:23:39.520Z,9.70
2023-04-11T04:26:06.579Z,9.70
2023-04-11T04:28:33.305Z,9.70
2023-04-11T04:31:02.156Z,9.70
2023-04-11T04:33:28.862Z,9.70
2023-04-11T04:36:00.022Z,9.70
2023-04-11T04:38:28.906Z,9.60
2023-04-11T04:40:55.548Z,9.60
2023-04-11T04:43:24.384Z,9.60
2023-04-11T04:45:51.388Z,9.60
2023-04-11T04:48:18.144Z,9.70
2023-04-11T04:50:45.825Z,9.60
2023-04-11T04:53:12.610Z,9.60
2023-04-11T04:55:39.325Z,9.60
2023-04-11T04:58:05.900Z,9.60
2023-04-11T05:00:33.684Z,9.60
2023-04-11T05:03:00.580Z,9.60
2023-04-11T05:05:27.495Z,9.60
2023-04-11T05:07:54.116Z,9.60
2023-04-11T05:10:20.990Z,9.60
2023-04-11T05:12:47.856Z,9.60
2023-04-11T05:15:15.225Z,9.50
2023-04-11T05:17:42.892Z,9.50
2023-04-11T05:20:10.330Z,9.50
2023-04-11T05:22:38.146Z,9.50
2023-04-11T05:25:05.761Z,9.50
2023-04-11T05:27:32.408Z,9.50
2023-04-11T05:29:59.631Z,9.50
2023-04-11T05:32:26.306Z,9.50
2023-04-11T05:34:57.283Z,9.50
2023-04-11T05:37:26.131Z,9.50
2023-04-11T05:39:53.115Z,9.50
2023-04-11T05:42:19.717Z,9.50
2023-04-11T05:44:46.271Z,9.50
2023-04-11T05:47:12.990Z,9.50
2023-04-11T05:49:39.613Z,9.50
2023-04-11T05:52:08.857Z,9.50
2023-04-11T05:54:36.997Z,9.50
2023-04-11T05:57:03.879Z,9.60
2023-04-11T05:59:32.638Z,9.60
2023-04-11T06:01:59.540Z,9.60
2023-04-11T06:04:26.718Z,9.60
2023-04-11T06:06:54.033Z,9.60
2023-04-11T06:09:20.880Z,9.60
2023-04-11T06:11:47.624Z,9.60
2023-04-11T06:14:14.301Z,9.60
2023-04-11T06:16:41.620Z,9.60
2023-04-11T06:19:08.301Z,9.60
2023-04-11T06:21:35.114Z,9.70
2023-04-11T06:24:05.444Z,9.70
2023-04-11T06:26:35.074Z,9.80
2023-04-11T06:29:05.171Z,9.70
2023-04-11T06:31:32.482Z,9.80
2023-04-11T06:34:00.858Z,9.80
2023-04-11T06:36:27.806Z,9.90
2023-04-11T06:38:54.462Z,10.00
2023-04-11T06:41:21.121Z,10.00
2023-04-11T06:43:47.730Z,10.00
2023-04-11T06:46:14.344Z,10.00
2023-04-11T06:48:40.996Z,10.10
2023-04-11T06:51:09.181Z,10.10
2023-04-11T06:53:36.077Z,10.20
2023-04-11T06:56:02.720Z,10.30
2023-04-11T06:58:29.341Z,10.30
2023-04-11T07:00:55.958Z,10.40
2023-04-11T07:03:25.198Z,10.40
2023-04-11T07:05:52.458Z,10.40
2023-04-11T07:08:19.087Z,10.50
2023-04-11T07:10:46.005Z,10.60
2023-04-11T07:13:12.669Z,10.50
2023-04-11T07:15:39.346Z,10.60
2023-04-11T07:18:06.056Z,10.60
2023-04-11T07:20:34.396Z,10.60
2023-04-11T07:23:01.108Z,10.70
2023-04-11T07:25:30.744Z,10.70
2023-04-11T07:27:57.809Z,10.90
2023-04-11T07:30:24.485Z,10.90
2023-04-11T07:32:51.219Z,11.00
2023-04-11T07:35:18.102Z,11.10
2023-04-11T07:37:45.633Z,11.10
2023-04-11T07:40:14.415Z,11.10
2023-04-11T07:42:41.801Z,11.10
2023-04-11T07:45:09.227Z,11.30
2023-04-11T07:47:36.128Z,11.30
2023-04-11T07:50:03.464Z,11.40
2023-04-11T07:52:30.290Z,11.40
2023-04-11T07:54:56.946Z,11.50
2023-04-11T07:57:23.660Z,11.50
2023-04-11T07:59:50.414Z,11.60
2023-04-11T08:02:17.343Z,11.70
2023-04-11T08:04:44.155Z,11.80
2023-04-11T08:07:11.524Z,12.00
2023-04-11T08:09:38.258Z,12.00
2023-04-11T08:12:08.312Z,12.00
2023-04-11T08:14:35.965Z,12.00
2023-04-11T08:17:03.358Z,12.00
2023-04-11T08:19:31.353Z,12.30
2023-04-11T08:21:57.946Z,12.20
2023-04-11T08:24:24.526Z,12.30
2023-04-11T08:26:51.049Z,12.30
2023-04-11T08:29:17.907Z,12.30
2023-04-11T08:31:45.186Z,12.60
2023-04-11T08:34:12.583Z,12.50
2023-04-11T08:36:42.216Z,12.60
2023-04-11T08:39:09.011Z,12.60
2023-04-11T08:41:35.881Z,12.70
2023-04-11T08:44:02.740Z,12.90
2023-04-11T08:46:32.455Z,12.90
2023-04-11T08:48:59.065Z,13.00
2023-04-11T08:51:29.025Z,13.10
2023-04-11T08:53:59.618Z,13.10
2023-04-11T08:56:26.669Z,13.30
2023-04-11T08:58:53.272Z,13.30
2023-04-11T09:01:32.341Z,13.30
2023-04-11T09:04:00.881Z,13.40
2023-04-11T09:06:30.919Z,13.40
2023-04-11T09:08:59.369Z,13.70
2023-04-11T09:11:27.031Z,13.70
2023-04-11T09:14:10.462Z,13.80
2023-04-11T09:16:37.791Z,13.90
2023-04-11T09:19:22.777Z,14.10
2023-04-11T09:21:52.992Z,14.10
2023-04-11T09:24:19.670Z,14.20
2023-04-11T09:26:46.396Z,14.20
2023-04-11T09:29:36.001Z,14.40
2023-04-11T09:32:02.630Z,14.50
2023-04-11T09:34:29.308Z,14.60
2023-04-11T09:36:56.568Z,14.70
2023-04-11T09:39:23.228Z,14.70
2023-04-11T09:41:49.868Z,14.70
2023-04-11T09:44:16.478Z,14.90
2023-04-11T09:46:59.720Z,15.20
2023-04-11T09:49:26.495Z,15.10
2023-04-11T09:51:53.421Z,15.30
2023-04-11T09:54:23.226Z,15.20
2023-04-11T09:56:50.324Z,15.20
2023-04-11T09:59:21.447Z,15.40
2023-04-11T10:01:50.302Z,15.60
2023-04-11T10:04:17.070Z,15.60
2023-04-11T10:07:03.912Z,15.80
2023-04-11T10:09:32.429Z,15.70
2023-04-11T10:11:59.401Z,15.90
2023-04-11T10:14:38.108Z,16.00
2023-04-11T10:17:21.172Z,16.10
2023-04-11T10:19:51.507Z,16.10
2023-04-11T10:22:43.663Z,16.20
2023-04-11T10:25:21.612Z,16.20
2023-04-11T10:27:50.129Z,16.40
2023-04-11T10:30:16.827Z,16.30
2023-04-11T10:33:09.866Z,16.40
2023-04-11T10:35:55.412Z,16.40
2023-04-11T10:38:51.656Z,16.60
2023-04-11T10:41:33.279Z,16.60
2023-04-11T10:44:26.114Z,16.80
2023-04-11T10:46:54.734Z,16.70
2023-04-11T10:49:40.496Z,16.90
2023-04-11T10:52:21.667Z,16.70
2023-04-11T10:54:52.901Z,16.70
2023-04-11T10:57:20.683Z,16.70
2023-04-11T10:59:50.065Z,17.00
2023-04-11T11:02:17.207Z,17.00
2023-04-11T11:04:44.142Z,17.40
2023-04-11T11:07:17.974Z,17.20
2023-04-11T11:09:49.410Z,17.20
2023-04-11T11:12:17.226Z,17.60
2023-04-11T11:14:46.082Z,17.40
2023-04-11T11:17:14.410Z,17.80
2023-04-11T11:19:48.326Z,17.90
2023-04-11T11:22:25.652Z,17.60
2023-04-11T11:24:52.780Z,17.60
2023-04-11T11:27:24.248Z,17.80
2023-04-11T11:29:51.675Z,17.80
2023-04-11T11:32:29.939Z,17.70
2023-04-11T11:37:44.277Z,17.60
2023-04-11T11:40:14.166Z,17.70
2023-04-11T11:42:41.259Z,17.60
2023-04-11T11:45:18.415Z,17.90
2023-04-11T11:47:46.315Z,17.70
2023-04-11T11:50:30.879Z,17.70
2023-04-11T11:53:14.052Z,17.80
2023-04-11T11:55:41.648Z,17.70
2023-04-11T11:58:08.316Z,17.90
2023-04-11T12:00:39.821Z,17.50
2023-04-11T12:03:10.176Z,17.70
2023-04-11T12:05:37.830Z,17.50
2023-04-11T12:08:07.829Z,17.50
2023-04-11T12:10:46.094Z,17.80
2023-04-11T12:13:16.980Z,17.60
2023-04-11T12:15:46.465Z,17.50
2023-04-11T12:18:13.278Z,17.60
2023-04-11T12:20:40.037Z,17.40
2023-04-11T12:23:06.741Z,17.30
2023-04-11T12:25:33.457Z,17.60
2023-04-11T12:28:00.040Z,17.60
2023-04-11T12:30:28.192Z,17.80
2023-04-11T12:32:56.363Z,17.60
2023-04-11T12:35:23.097Z,17.70
2023-04-11T12:37:49.805Z,17.60
2023-04-11T12:40:17.424Z,17.90
2023-04-11T12:42:56.357Z,17.90
2023-04-11T12:45:24.612Z,18.00
2023-04-11T12:47:51.634Z,17.80
2023-04-11T12:50:18.522Z,18.10
2023-04-11T12:52:45.544Z,18.20
2023-04-11T12:55:13.442Z,18.00
2023-04-11T12:57:41.049Z,18.30
2023-04-11T13:00:09.001Z,17.90
2023-04-11T13:02:43.065Z,18.00
2023-04-11T13:05:14.173Z,18.20
2023-04-11T13:07:41.194Z,18.20
2023-04-11T13:10:09.390Z,18.10
2023-04-11T13:12:45.628Z,18.30
2023-04-11T13:15:14.331Z,18.10
2023-04-11T13:17:41.305Z,18.20
2023-04-11T13:20:10.426Z,18.50
2023-04-11T13:22:38.314Z,18.40
2023-04-11T13:25:05.980Z,18.50
2023-04-11T13:27:33.237Z,18.40
2023-04-11T13:29:59.904Z,18.20
2023-04-11T13:32:26.634Z,18.40
2023-04-11T13:34:53.294Z,18.50
2023-04-11T13:37:19.916Z,18.30
2023-04-11T13:39:46.464Z,18.00
2023-04-11T13:42:13.720Z,18.00
2023-04-11T13:44:40.371Z,18.30
2023-04-11T13:47:06.972Z,18.40
2023-04-11T13:49:33.672Z,18.50
2023-04-11T13:52:00.603Z,18.60
2023-04-11T13:54:27.531Z,18.30
2023-04-11T13:56:54.260Z,18.40
2023-04-11T13:59:20.884Z,18.30
2023-04-11T14:01:47.635Z,18.40
2023-04-11T14:04:14.296Z,18.20
2023-04-11T14:06:41.071Z,18.30
2023-04-11T14:09:07.807Z,18.30
2023-04-11T14:11:34.435Z,18.20
2023-04-11T14:14:01.068Z,17.90
2023-04-11T14:16:27.743Z,18.00
2023-04-11T14:18:54.362Z,18.00
2023-04-11T14:21:22.175Z,17.50
2023-04-11T14:23:48.916Z,17.80
2023-04-11T14:26:15.702Z,17.90
2023-04-11T14:28:43.030Z,17.90
2023-04-11T14:31:09.831Z,17.90
2023-04-11T14:33:36.692Z,17.80
2023-04-11T14:36:03.428Z,17.90
2023-04-11T14:38:30.022Z,17.70
2023-04-11T14:40:56.793Z,17.80
2023-04-11T14:43:23.399Z,17.80
2023-04-11T14:45:50.281Z,17.80
2023-04-11T14:48:17.165Z,17.80
2023-04-11T14:50:43.853Z,17.70
2023-04-11T14:53:10.563Z,17.70
2023-04-11T14:55:39.526Z,17.50
2023-04-11T14:58:06.279Z,17.70
2023-04-11T15:00:33.010Z,17.50
2023-04-11T15:02:59.980Z,17.20
2023-04-11T15:05:27.062Z,17.40
2023-04-11T15:07:53.785Z,17.00
2023-04-11T15:10:23.409Z,17.00
2023-04-11T15:12:50.384Z,17.10
2023-04-11T15:15:17.036Z,17.20
2023-04-11T15:17:46.725Z,17.00
2023-04-11T15:20:14.704Z,16.80
2023-04-11T15:22:43.216Z,16.80
2023-04-11T15:25:15.069Z,17.10
2023-04-11T15:27:42.519Z,17.20
2023-04-11T15:30:10.478Z,17.30
2023-04-11T15:32:43.159Z,17.20
2023-04-11T15:35:10.177Z,17.10
2023-04-11T15:37:36.883Z,16.90
2023-04-11T15:40:06.264Z,17.00
2023-04-11T15:42:35.462Z,17.00
2023-04-11T15:45:02.525Z,17.10
2023-04-11T15:47:29.917Z,17.00
2023-04-11T15:49:56.989Z,17.00
2023-04-11T15:52:23.637Z,16.90
2023-04-11T15:54:50.417Z,16.90
2023-04-11T15:57:18.420Z,16.70
2023-04-11T15:59:45.755Z,16.80
2023-04-11T16:02:12.584Z,16.80
2023-04-11T16:04:39.412Z,16.80
2023-04-11T16:07:06.779Z,16.80
2023-04-11T16:09:34.084Z,16.80
2023-04-11T16:12:01.390Z,16.70
2023-04-11T16:14:29.295Z,16.70
2023-04-11T16:16:57.511Z,16.70
2023-04-11T16:19:24.158Z,16.60
2023-04-11T16:21:50.946Z,16.60
2023-04-11T16:24:18.948Z,16.60
2023-04-11T16:26:45.709Z,16.50
2023-04-11T16:29:12.526Z,16.50
2023-04-11T16:31:39.508Z,16.40
2023-04-11T16:34:06.298Z,16.40
2023-04-11T16:36:34.405Z,16.40
2023-04-11T16:39:01.508Z,16.40
2023-04-11T16:41:28.220Z,16.30
2023-04-11T16:43:55.246Z,16.30
2023-04-11T16:46:22.196Z,16.20
2023-04-11T16:48:48.870Z,16.20
2023-04-11T16:51:18.420Z,16.20
2023-04-11T16:53:46.068Z,16.10
2023-04-11T16:56:13.080Z,16.10
2023-04-11T16:58:39.770Z,16.10
2023-04-11T17:01:06.954Z,16.00
2023-04-11T17:03:33.792Z,16.00
2023-04-11T17:06:00.564Z,15.90
2023-04-11T17:08:27.299Z,15.80
2023-04-11T17:10:54.061Z,15.90
2023-04-11T17:13:21.021Z,15.80
2023-04-11T17:15:47.743Z,15.80
2023-04-11T17:18:15.096Z,15.70
2023-04-11T17:20:43.574Z,15.70
2023-04-11T17:23:10.334Z,15.70
2023-04-11T17:25:37.058Z,15.60
2023-04-11T17:28:04.066Z,15.60
2023-04-11T17:30:32.141Z,15.50
2023-04-11T17:32:59.342Z,15.40
2023-04-11T17:35:28.068Z,15.30
2023-04-11T17:37:55.401Z,15.30
2023-04-11T17:40:22.377Z,15.30
2023-04-11T17:42:49.835Z,15.30
2023-04-11T17:45:18.575Z,15.20
2023-04-11T17:47:47.471Z,15.20
2023-04-11T17:50:14.404Z,15.20
2023-04-11T17:52:44.487Z,15.10
2023-04-11T17:55:13.198Z,15.00
2023-04-11T17:57:40.348Z,14.90
2023-04-11T18:00:22.316Z,14.80
2023-04-11T18:02:54.692Z,14.90
2023-04-11T18:05:25.020Z,14.90
2023-04-11T18:07:54.553Z,14.90
2023-04-11T18:10:22.170Z,14.90
2023-04-11T18:12:53.802Z,14.90
2023-04-11T18:15:21.964Z,14.80
2023-04-11T18:17:48.992Z,14.80
2023-04-11T18:20:15.858Z,14.80
2023-04-11T18:22:44.388Z,14.70
2023-04-11T18:25:11.673Z,14.70
2023-04-11T18:27:39.794Z,14.60
2023-04-11T18:30:14.242Z,14.60
2023-04-11T18:32:47.228Z,14.50
2023-04-11T18:35:16.170Z,14.50
2023-04-11T18:37:42.912Z,14.50
2023-04-11T18:40:13.872Z,14.40
2023-04-11T18:42:42.494Z,14.40
2023-04-11T18:45:11.672Z,14.40
2023-04-11T18:47:39.662Z,14.30
2023-04-11T18:50:07.105Z,14.30
2023-04-11T18:52:35.006Z,14.20
2023-04-11T18:55:01.817Z,14.20
2023-04-11T18:57:32.165Z,14.10
2023-04-11T19:02:35.742Z,14.10
2023-04-11T19:05:03.267Z,14.00
2023-04-11T19:07:31.668Z,14.00
2023-04-11T19:09:58.310Z,14.00
2023-04-11T19:12:25.041Z,13.90
2023-04-11T19:14:51.657Z,13.90
2023-04-11T19:17:18.917Z,13.90
2023-04-11T19:19:45.806Z,13.80
2023-04-11T19:22:12.789Z,13.80
2023-04-11T19:24:39.369Z,13.70
2023-04-11T19:27:08.151Z,13.70
2023-04-11T19:29:34.921Z,13.60
2023-04-11T19:32:01.619Z,13.60
2023-04-11T19:34:28.356Z,13.50
2023-04-11T19:36:55.008Z,13.50
2023-04-11T19:39:21.577Z,13.50
2023-04-11T19:41:48.221Z,13.40
2023-04-11T19:44:14.829Z,13.40
2023-04-11T19:46:41.549Z,13.40
2023-04-11T19:49:08.304Z,13.30
2023-04-11T19:51:35.089Z,13.30
2023-04-11T19:54:01.652Z,13.30
2023-04-11T19:56:28.328Z,13.20
2023-04-11T19:58:54.964Z,13.20
2023-04-11T20:01:22.012Z,13.20
2023-04-11T20:03:48.735Z,13.20
2023-04-11T20:06:15.391Z,13.10
2023-04-11T20:08:41.956Z,13.10
2023-04-11T20:11:08.733Z,13.10
2023-04-11T20:13:36.063Z,13.10
2023-04-11T20:16:04.932Z,13.00
2023-04-11T20:18:31.716Z,13.00
2023-04-11T20:20:58.592Z,12.90
2023-04-11T20:23:26.040Z,12.90
2023-04-11T20:25:52.814Z,12.90
2023-04-11T20:28:19.459Z,12.90
2023-04-11T20:30:46.201Z,12.90
2023-04-11T20:33:12.941Z,12.80
2023-04-11T20:35:39.884Z,12.80
2023-04-11T20:38:06.544Z,12.70
2023-04-11T20:40:33.184Z,12.70
2023-04-11T20:43:02.040Z,12.70
2023-04-11T20:45:29.921Z,12.60
2023-04-11T20:47:57.702Z,12.60
2023-04-11T20:50:25.835Z,12.60
2023-04-11T20:52:52.987Z,12.50
2023-04-11T20:55:20.992Z,12.50
2023-04-11T20:57:47.774Z,12.40
2023-04-11T21:00:15.037Z,12.40
2023-04-11T21:02:44.233Z,12.40
2023-04-11T21:05:12.977Z,12.40
2023-04-11T21:07:41.482Z,12.40
2023-04-11T21:10:08.869Z,12.30
2023-04-11T21:12:35.914Z,12.40
2023-04-11T21:15:04.099Z,12.40
2023-04-11T21:17:35.289Z,12.30
2023-04-11T21:20:17.522Z,12.30
2023-04-11T21:22:44.678Z,12.20
2023-04-11T21:25:11.322Z,12.30
2023-04-11T21:27:38.113Z,12.20
2023-04-11T21:30:06.383Z,12.20
2023-04-11T21:32:33.130Z,12.20
2023-04-11T21:34:59.846Z,12.20
2023-04-11T21:37:26.490Z,12.10
2023-04-11T21:39:56.295Z,12.10
2023-04-11T21:42:22.976Z,12.00
2023-04-11T21:44:49.575Z,12.10
2023-04-11T21:47:17.179Z,12.10
2023-04-11T21:49:44.027Z,12.10
2023-04-11T21:52:10.843Z,12.00
2023-04-11T21:54:37.474Z,12.00
2023-04-11T21:57:04.151Z,12.00
2023-04-11T21:59:30.951Z,11.90
2023-04-11T22:01:57.682Z,11.80
2023-04-11T22:04:24.807Z,11.80
2023-04-11T22:06:51.653Z,11.80
2023-04-11T22:09:18.262Z,11.90
2023-04-11T22:11:44.876Z,11.90
2023-04-11T22:14:16.177Z,11.80
2023-04-11T22:16:48.987Z,11.70
2023-04-11T22:19:19.283Z,11.80
2023-04-11T22:21:55.530Z,11.70
2023-04-11T22:24:30.222Z,11.70
2023-04-11T22:27:04.222Z,11.60
2023-04-11T22:29:31.226Z,11.70
2023-04-11T22:31:59.582Z,11.70
2023-04-11T22:34:32.462Z,11.60
2023-04-11T22:36:59.171Z,11.60
2023-04-11T22:39:25.940Z,11.60
2023-04-11T22:41:53.496Z,11.50
2023-04-11T22:44:20.347Z,11.50
2023-04-11T22:47:06.433Z,11.60
2023-04-11T22:49:40.611Z,11.50
2023-04-11T22:52:14.984Z,11.50
2023-04-11T22:54:42.738Z,11.60
2023-04-11T22:57:09.656Z,11.50
2023-04-11T22:59:36.864Z,11.50
2023-04-11T23:02:03.577Z,11.50
2023-04-11T23:04:32.072Z,11.50
2023-04-11T23:06:59.106Z,11.50
2023-04-11T23:09:26.456Z,11.50
2023-04-11T23:11:53.573Z,11.40
2023-04-11T23:14:21.100Z,11.40
2023-04-11T23:16:48.642Z,11.40
2023-04-11T23:19:15.349Z,11.40
2023-04-11T23:21:42.230Z,11.40
2023-04-11T23:24:09.995Z,11.40
2023-04-11T23:26:37.185Z,11.30
2023-04-11T23:29:04.301Z,11.30
2023-04-11T23:31:31.748Z,11.40
2023-04-11T23:33:58.615Z,11.30
2023-04-11T23:36:27.493Z,11.30
2023-04-11T23:38:54.552Z,11.30
2023-04-11T23:41:21.148Z,11.30
2023-04-11T23:43:47.754Z,11.30
2023-04-11T23:46:16.909Z,11.20
2023-04-11T23:48:44.329Z,11.20
2023-04-11T23:51:13.966Z,11.20
2023-04-11T23:53:40.679Z,11.30
2023-04-11T23:56:07.869Z,11.20
2023-04-11T23:58:35.017Z,11.20
